»·PEaware :: FDX1857 KOAK-KPDX

FDX1857 :: KOAK-KPDX

FLIGHT INFORMATION

Flight Status: Arrived
Operator:
Federal Express
More flights by this operator :: More flights under this callsign
Pilot: Kaleb W. (11686)
Aircraft: BOEING 757-200
(B752)
More flights by this aircraft type
Origin: KOAK Metro Oakland Intl
United States
Destination: KPDX Portland Intl
United States
More flights between these airports :: More routes between these airports
Route: +OAK3 GRTFL MACHU TMBRS2
File this flight plan on PilotEdge
Remarks: RMK / POWERED BY SIMBRIEF
Altitude:
(Current/Filed)
38,000ft
Speed:
(Current/Filed)
464kts
Departed: 10-Oct-18 06:55 PM
Arrived: 10-Oct-18 08:19 PM
Distance/Time
Traveled:
472nm/1:24
Distance/Time
To Go:
Arrived

Flight Plot

Page will automatically refresh every two minutes.

Flight plan parsing failed; only flown route is shown


Map Options




Map Legend


Flown Route
Filed Route
Departure Airport
Arrival Airport
Navaid (VOR, NDB)
Fix

Horizontal Profiles

Position Reports

Time Latitude Longitude Heading Altitude Ground
Speed
10-Oct-18 18:28 37.719451 -122.216927 219 15ft 0kts
10-Oct-18 18:29 37.719451 -122.216927 219 15ft 0kts
10-Oct-18 18:30 37.719451 -122.216927 219 15ft 0kts
10-Oct-18 18:31 37.719451 -122.216927 219 15ft 0kts
10-Oct-18 18:32 37.719451 -122.216927 219 15ft 0kts
10-Oct-18 18:33 37.719451 -122.216927 219 15ft 0kts
10-Oct-18 18:34 37.719451 -122.216927 219 15ft 0kts
10-Oct-18 18:35 37.719451 -122.216927 219 15ft 0kts
10-Oct-18 18:36 37.719451 -122.216927 219 15ft 0kts
10-Oct-18 18:37 37.719451 -122.216927 219 15ft 0kts
10-Oct-18 18:38 37.719451 -122.216927 219 15ft 0kts
10-Oct-18 18:39 37.719451 -122.216927 219 15ft 0kts
10-Oct-18 18:40 37.719451 -122.216927 219 15ft 0kts
10-Oct-18 18:41 37.719451 -122.216927 219 15ft 0kts
10-Oct-18 18:42 37.719451 -122.216927 219 15ft 0kts
10-Oct-18 18:43 37.719451 -122.216927 219 15ft 0kts
10-Oct-18 18:44 37.719518 -122.216858 219 15ft 2kts
10-Oct-18 18:45 37.720022 -122.216639 165 15ft 2kts
10-Oct-18 18:46 37.720300 -122.216877 129 15ft 0kts
10-Oct-18 18:47 37.720300 -122.216877 129 15ft 0kts
10-Oct-18 18:48 37.720300 -122.216877 129 15ft 0kts
10-Oct-18 18:49 37.720176 -122.216686 129 15ft 6kts
10-Oct-18 18:50 37.716649 -122.217172 229 15ft 18kts
10-Oct-18 18:51 37.713419 -122.221772 226 15ft 16kts
10-Oct-18 18:52 37.709812 -122.222896 129 15ft 18kts
10-Oct-18 18:53 37.706682 -122.218218 130 15ft 15kts
10-Oct-18 18:54 37.703951 -122.214248 148 15ft 14kts
10-Oct-18 18:55 37.702531 -122.213599 183 15ft 0kts
10-Oct-18 18:56 37.702195 -122.215280 309 15ft 19kts
10-Oct-18 18:57 37.725800 -122.251081 308 1426ft 198kts
10-Oct-18 18:58 37.767645 -122.314147 309 4138ft 250kts
10-Oct-18 18:59 37.812347 -122.383039 309 7705ft 261kts
10-Oct-18 19:00 37.874853 -122.406323 34 10420ft 294kts
10-Oct-18 19:01 37.953100 -122.347196 18 12655ft 351kts
10-Oct-18 19:02 38.048086 -122.313843 14 15748ft 363kts
10-Oct-18 19:03 38.145398 -122.284208 13 18449ft 375kts
10-Oct-18 19:04 38.248211 -122.257780 10 21012ft 387kts
10-Oct-18 19:05 38.355444 -122.232257 0 23292ft 399kts
10-Oct-18 19:06 38.467034 -122.240997 355 25407ft 409kts
10-Oct-18 19:07 38.581439 -122.252506 354 27313ft 420kts
10-Oct-18 19:08 38.698888 -122.265093 354 29065ft 430kts
10-Oct-18 19:09 38.818717 -122.278123 353 30631ft 439kts
10-Oct-18 19:10 38.939809 -122.291274 353 32654ft 435kts
10-Oct-18 19:11 39.059077 -122.303935 353 34800ft 428kts
10-Oct-18 19:12 39.175872 -122.312181 355 35837ft 424kts
10-Oct-18 19:13 39.292887 -122.322093 354 35825ft 424kts
10-Oct-18 19:14 39.409987 -122.334112 353 35807ft 424kts
10-Oct-18 19:15 39.527184 -122.346547 353 35806ft 424kts
10-Oct-18 19:16 39.644461 -122.359093 353 35805ft 424kts
10-Oct-18 19:17 39.761191 -122.374228 351 35804ft 423kts
10-Oct-18 19:18 39.878153 -122.390638 353 35802ft 424kts
10-Oct-18 19:19 39.995195 -122.403976 353 35801ft 424kts
10-Oct-18 19:20 40.110922 -122.415923 354 35805ft 424kts
10-Oct-18 19:21 40.228123 -122.427023 354 35809ft 424kts
10-Oct-18 19:22 40.345292 -122.440471 352 35808ft 423kts
10-Oct-18 19:23 40.462420 -122.454551 354 35806ft 424kts
10-Oct-18 19:24 40.579933 -122.465821 354 35805ft 424kts
10-Oct-18 19:25 40.696803 -122.478579 352 35813ft 425kts
10-Oct-18 19:26 40.814373 -122.492425 353 35811ft 425kts
10-Oct-18 19:27 40.931619 -122.506220 352 35810ft 425kts
10-Oct-18 19:28 41.048826 -122.519951 353 35838ft 423kts
10-Oct-18 19:29 41.161723 -122.532815 354 35898ft 422kts
10-Oct-18 19:30 41.278719 -122.544968 354 35940ft 422kts
10-Oct-18 19:31 41.395501 -122.557795 354 35945ft 422kts
10-Oct-18 19:32 41.512338 -122.569920 354 35943ft 422kts
10-Oct-18 19:33 41.629060 -122.577713 356 35942ft 422kts
10-Oct-18 19:34 41.746290 -122.585267 356 35941ft 422kts
10-Oct-18 19:35 41.863242 -122.594049 356 35939ft 422kts
10-Oct-18 19:36 41.960577 -122.600698 356 35938ft 422kts
10-Oct-18 19:37 42.096787 -122.610845 356 35937ft 422kts
10-Oct-18 19:38 42.192051 -122.617444 356 35947ft 422kts
10-Oct-18 19:39 42.328400 -122.626607 356 35945ft 422kts
10-Oct-18 19:40 42.445405 -122.634444 356 35944ft 422kts
10-Oct-18 19:41 42.542761 -122.639948 356 35943ft 422kts
10-Oct-18 19:42 42.659589 -122.646387 356 35942ft 422kts
10-Oct-18 19:43 42.776213 -122.653790 355 35943ft 422kts
10-Oct-18 19:44 42.892841 -122.661619 355 35941ft 421kts
10-Oct-18 19:45 43.009096 -122.669595 356 35943ft 419kts
10-Oct-18 19:46 43.124154 -122.679881 356 35973ft 419kts
10-Oct-18 19:47 43.240235 -122.687824 357 35994ft 418kts
10-Oct-18 19:48 43.375397 -122.696311 357 35992ft 418kts
10-Oct-18 19:49 43.471349 -122.702833 357 35977ft 401kts
10-Oct-18 19:50 43.580672 -122.709350 357 34072ft 395kts
10-Oct-18 19:51 43.691111 -122.717463 357 32021ft 403kts
10-Oct-18 19:52 43.803350 -122.726886 357 29998ft 411kts
10-Oct-18 19:53 43.916527 -122.735193 357 27993ft 402kts
10-Oct-18 19:54 44.026683 -122.742969 357 26084ft 393kts
10-Oct-18 19:55 44.133338 -122.750478 358 24262ft 386kts
10-Oct-18 19:56 44.255915 -122.737299 7 21758ft 374kts
10-Oct-18 19:57 44.341032 -122.725351 5 19956ft 367kts
10-Oct-18 19:58 44.441398 -122.714756 4 17854ft 359kts
10-Oct-18 19:59 44.536938 -122.705184 4 16548ft 333kts
10-Oct-18 20:00 44.627339 -122.696148 4 14782ft 327kts
10-Oct-18 20:01 44.731769 -122.685628 4 12821ft 319kts
10-Oct-18 20:02 44.804756 -122.678251 4 11426ft 315kts
10-Oct-18 20:03 44.891286 -122.669537 4 10990ft 312kts
10-Oct-18 20:04 44.977486 -122.661149 8 11002ft 311kts
10-Oct-18 20:05 45.062326 -122.650713 3 10991ft 290kts
10-Oct-18 20:06 45.154185 -122.642280 4 11000ft 285kts
10-Oct-18 20:07 45.219887 -122.636436 359 10992ft 283kts
10-Oct-18 20:08 45.295413 -122.666513 339 9936ft 282kts
10-Oct-18 20:09 45.366773 -122.705843 339 6970ft 272kts
10-Oct-18 20:10 45.436175 -122.743961 339 6005ft 269kts
10-Oct-18 20:11 45.498701 -122.778381 339 5073ft 221kts
10-Oct-18 20:12 45.558253 -122.830548 311 3991ft 212kts
10-Oct-18 20:13 45.591995 -122.896509 332 3560ft 190kts
10-Oct-18 20:14 45.632607 -122.877051 66 3739ft 171kts
10-Oct-18 20:15 45.634200 -122.823815 88 2257ft 158kts
10-Oct-18 20:16 45.631376 -122.768296 98 1078ft 129kts
10-Oct-18 20:17 45.624303 -122.716841 104 1044ft 138kts
10-Oct-18 20:18 45.612725 -122.666566 116 504ft 132kts
10-Oct-18 20:19 45.595218 -122.621632 119 94ft 130kts
10-Oct-18 20:20 45.584342 -122.593761 118 26ft 57kts
10-Oct-18 20:21 45.578990 -122.585711 253 25ft 15kts

Navigation Log

Ident Type
Flight plan parsing failed, navigation log unavailable